Project City, California
Current Conditions -  °F | °C
As of 7:53 AM on Monday 26 Jan 2015 (Local Time) from KRDD Reporting Station
Haze Haze  
Wind Chill:   Ceiling: Unl
Heat Index:   Visibility: 6mi
Dew Point:   Wind: 3mph
Humidity: 96%   Direction: 290°WNW
Pressure: 30.11"   Gusts: NA
Location:  40.6814°N, 122.35°W
Report Text: KRDD 261553Z 29003KT 6SM BR CLR 05/04 A3011 RMK AO2 SLP196 T00500044
Loading
Personal Weather Stations






























Interactive Weather Map New forecast layout! Learn more

10-Day Weather Forecast

Advertisements
Track Severe Weather on mobile